Koushinmaru No.5 — JL6695 — position and weather

sailwx.info

Track history (hours):
 
Tides and Currents Weather Stations Pressure Air Temp Water Temp Dewpoint Dewpoint Depression Visibility Wind Speed Wind Dir Waves Ship Positions

Koushinmaru No.5

Last reported at 2017-Jul-21 11:00 UTC. Time now 2017-Jul-22 22:39 UTC.
Position N 34°08' E 134°60'.

Length 75 m; draft 5 m.

Type: Cargo ship. MMSI: 431301703.

Date/timePositionNaut miles runAvg speedWind from/ knotsBaromVisibWave heightAir tempDewpointWater temp
2017-Jul-21 11:00N 34°08' E 134°60'611.4
2017-Jul-21 10:30N 34°13' E 134°59'14 9.5
2017-Jul-21 09:03N 34°27' E 135°03'210.6
2017-Jul-21 08:49N 34°29' E 135°05'410.9
2017-Jul-21 08:30N 34°32' E 135°07'612.2
2017-Jul-21 08:01N 34°37' E 135°11'4 7.7
2017-Jul-21 07:30N 34°41' E 135°12'0 0.0
2017-Jul-21 07:00N 34°41' E 135°12'0 0.0
2017-Jul-21 06:30N 34°41' E 135°12'0 0.3
2017-Jul-21 06:01N 34°40' E 135°12'1 1.6
2017-Jul-21 05:31N 34°40' E 135°12'0 0.0
2017-Jul-21 05:00N 34°40' E 135°12'0 0.0
2017-Jul-21 04:31N 34°40' E 135°12'2 3.0
2017-Jul-21 04:01N 34°38' E 135°11'611.9
2017-Jul-21 03:30N 34°35' E 135°05'  
2017-Jul-16 01:06N 34°36' E 135°03'1 9.2
2017-Jul-16 01:00N 34°36' E 135°04'510.6
2017-Jul-16 00:30N 34°35' E 135°10'510.5
2017-Jul-16 00:00N 34°34' E 135°16'4 6.5
2017-Jul-15 23:27N 34°34' E 135°21'0 0.0
2017-Jul-15 23:00N 34°34' E 135°21'0 0.1
2017-Jul-15 22:30N 34°34' E 135°20'0 0.0
2017-Jul-15 22:00N 34°34' E 135°20'0 0.0
2017-Jul-15 21:30N 34°34' E 135°20'0 0.0
2017-Jul-15 21:00N 34°34' E 135°20'0 0.0
2017-Jul-15 20:29N 34°34' E 135°20'0 0.0
2017-Jul-15 20:00N 34°34' E 135°20'0 0.0
2017-Jul-15 19:27N 34°34' E 135°20'0 0.0
2017-Jul-15 18:58N 34°34' E 135°20'0 0.0
2017-Jul-15 18:29N 34°34' E 135°20'0 0.0
2017-Jul-15 18:00N 34°34' E 135°20'0 0.1
2017-Jul-15 17:29N 34°34' E 135°20'0 0.0
2017-Jul-15 17:00N 34°34' E 135°20'0 0.0
2017-Jul-15 16:30N 34°34' E 135°20'0 0.0
2017-Jul-15 16:00N 34°34' E 135°20'0 0.1
2017-Jul-15 15:30N 34°34' E 135°20'0 0.1
2017-Jul-15 15:00N 34°34' E 135°20'0 0.1
2017-Jul-15 14:00N 34°34' E 135°21'0 0.1
2017-Jul-15 13:30N 34°34' E 135°20'0 0.0
2017-Jul-15 13:00N 34°34' E 135°20'0 0.1
2017-Jul-15 12:30N 34°34' E 135°21'0 0.0
2017-Jul-15 12:00N 34°34' E 135°21'0 0.1
2017-Jul-15 11:30N 34°34' E 135°20'0 0.0
2017-Jul-15 11:00N 34°34' E 135°20'0 0.1
2017-Jul-15 10:30N 34°34' E 135°21'0 0.1
2017-Jul-15 10:00N 34°34' E 135°20'0 0.1
2017-Jul-15 09:30N 34°34' E 135°21'1 1.5
2017-Jul-15 09:00N 34°34' E 135°20'511.0
2017-Jul-15 08:30N 34°30' E 135°15'610.9
2017-Jul-15 08:00N 34°26' E 135°10'510.6
2017-Jul-15 07:30N 34°22' E 135°06'5 9.6
2017-Jul-15 06:59N 34°17' E 135°04'4 7.6
2017-Jul-15 06:30N 34°14' E 135°06'1 1.5
2017-Jul-15 06:00N 34°15' E 135°07'0 0.0
2017-Jul-15 05:30N 34°15' E 135°07'0 0.0
2017-Jul-15 05:00N 34°15' E 135°07'0 0.0
2017-Jul-15 04:30N 34°15' E 135°07'0 0.0
2017-Jul-15 04:00N 34°15' E 135°07'0 0.0
2017-Jul-15 03:30N 34°15' E 135°07'0 0.0
2017-Jul-15 03:00N 34°15' E 135°07'0 0.0
2017-Jul-15 02:30N 34°15' E 135°07'0 0.0
2017-Jul-15 02:00N 34°15' E 135°07'0 0.2
2017-Jul-15 01:30N 34°15' E 135°07'0 0.0
2017-Jul-15 00:59N 34°15' E 135°07'0 0.0
2017-Jul-15 00:30N 34°15' E 135°07'0 0.0
2017-Jul-15 00:00N 34°15' E 135°07'0 0.0
2017-Jul-14 23:30N 34°15' E 135°07'0 0.0
2017-Jul-14 23:00N 34°15' E 135°07'0 0.0
2017-Jul-14 22:30N 34°15' E 135°07'0 0.0
2017-Jul-14 22:00N 34°15' E 135°07'0 0.5
2017-Jul-14 21:30N 34°14' E 135°07'1 2.3
2017-Jul-14 21:01N 34°15' E 135°06'0 0.0
2017-Jul-14 20:30N 34°15' E 135°06'0 0.0
2017-Jul-14 20:00N 34°15' E 135°06'0 0.0
2017-Jul-14 19:30N 34°15' E 135°06'0 0.0
2017-Jul-14 19:00N 34°15' E 135°06'0 0.0
2017-Jul-14 18:30N 34°15' E 135°06'0 0.0
2017-Jul-14 18:00N 34°15' E 135°06'0 0.0
2017-Jul-14 17:30N 34°15' E 135°06'0 0.0
2017-Jul-14 17:00N 34°15' E 135°06'0 0.0
2017-Jul-14 16:30N 34°15' E 135°06'0 0.1
2017-Jul-14 16:00N 34°15' E 135°06'0 0.0
2017-Jul-14 15:30N 34°15' E 135°06'0 0.1
2017-Jul-14 15:00N 34°15' E 135°06'0 0.0
2017-Jul-14 14:30N 34°15' E 135°06'0 0.0
2017-Jul-14 14:00N 34°15' E 135°06'0 0.0
2017-Jul-14 13:30N 34°15' E 135°06'0 0.0
2017-Jul-14 13:00N 34°15' E 135°06'0 0.0
2017-Jul-14 12:30N 34°15' E 135°06'0 0.0
2017-Jul-14 12:00N 34°15' E 135°06'0 0.1
2017-Jul-14 11:30N 34°15' E 135°06'0 0.0
2017-Jul-14 11:00N 34°15' E 135°06'0 0.0
2017-Jul-14 10:30N 34°15' E 135°06'0 0.0
2017-Jul-14 10:00N 34°15' E 135°06'0 0.0
2017-Jul-14 09:30N 34°15' E 135°06'2 3.0
2017-Jul-14 09:00N 34°14' E 135°04'  
Track history (hours):
 
Tides and Currents Weather Stations Pressure Air Temp Water Temp Dewpoint Dewpoint Depression Visibility Wind Speed Wind Dir Waves Ship Positions

Koushinmaru No.5

Last reported at 2017-Jul-21 11:00 UTC. Time now 2017-Jul-22 22:39 UTC.
Position N 34°08' E 134°60'.

Length 75 m; draft 5 m.

Type: Cargo ship. MMSI: 431301703.

Date/timePositionNaut miles runAvg speedWind from/ knotsBaromVisibWave heightAir tempDewpointWater temp
2017-Jul-21 11:00N 34°08' E 134°60'611.4
2017-Jul-21 10:30N 34°13' E 134°59'14 9.5
2017-Jul-21 09:03N 34°27' E 135°03'210.6
2017-Jul-21 08:49N 34°29' E 135°05'410.9
2017-Jul-21 08:30N 34°32' E 135°07'612.2
2017-Jul-21 08:01N 34°37' E 135°11'4 7.7
2017-Jul-21 07:30N 34°41' E 135°12'0 0.0
2017-Jul-21 07:00N 34°41' E 135°12'0 0.0
2017-Jul-21 06:30N 34°41' E 135°12'0 0.3
2017-Jul-21 06:01N 34°40' E 135°12'1 1.6
2017-Jul-21 05:31N 34°40' E 135°12'0 0.0
2017-Jul-21 05:00N 34°40' E 135°12'0 0.0
2017-Jul-21 04:31N 34°40' E 135°12'2 3.0
2017-Jul-21 04:01N 34°38' E 135°11'611.9
2017-Jul-21 03:30N 34°35' E 135°05'  
2017-Jul-16 01:06N 34°36' E 135°03'1 9.2
2017-Jul-16 01:00N 34°36' E 135°04'510.6
2017-Jul-16 00:30N 34°35' E 135°10'510.5
2017-Jul-16 00:00N 34°34' E 135°16'4 6.5
2017-Jul-15 23:27N 34°34' E 135°21'0 0.0
2017-Jul-15 23:00N 34°34' E 135°21'0 0.1
2017-Jul-15 22:30N 34°34' E 135°20'0 0.0
2017-Jul-15 22:00N 34°34' E 135°20'0 0.0
2017-Jul-15 21:30N 34°34' E 135°20'0 0.0
2017-Jul-15 21:00N 34°34' E 135°20'0 0.0
2017-Jul-15 20:29N 34°34' E 135°20'0 0.0
2017-Jul-15 20:00N 34°34' E 135°20'0 0.0
2017-Jul-15 19:27N 34°34' E 135°20'0 0.0
2017-Jul-15 18:58N 34°34' E 135°20'0 0.0
2017-Jul-15 18:29N 34°34' E 135°20'0 0.0
2017-Jul-15 18:00N 34°34' E 135°20'0 0.1
2017-Jul-15 17:29N 34°34' E 135°20'0 0.0
2017-Jul-15 17:00N 34°34' E 135°20'0 0.0
2017-Jul-15 16:30N 34°34' E 135°20'0 0.0
2017-Jul-15 16:00N 34°34' E 135°20'0 0.1
2017-Jul-15 15:30N 34°34' E 135°20'0 0.1
2017-Jul-15 15:00N 34°34' E 135°20'0 0.1
2017-Jul-15 14:00N 34°34' E 135°21'0 0.1
2017-Jul-15 13:30N 34°34' E 135°20'0 0.0
2017-Jul-15 13:00N 34°34' E 135°20'0 0.1
2017-Jul-15 12:30N 34°34' E 135°21'0 0.0
2017-Jul-15 12:00N 34°34' E 135°21'0 0.1
2017-Jul-15 11:30N 34°34' E 135°20'0 0.0
2017-Jul-15 11:00N 34°34' E 135°20'0 0.1
2017-Jul-15 10:30N 34°34' E 135°21'0 0.1
2017-Jul-15 10:00N 34°34' E 135°20'0 0.1
2017-Jul-15 09:30N 34°34' E 135°21'1 1.5
2017-Jul-15 09:00N 34°34' E 135°20'511.0
2017-Jul-15 08:30N 34°30' E 135°15'610.9
2017-Jul-15 08:00N 34°26' E 135°10'510.6
2017-Jul-15 07:30N 34°22' E 135°06'5 9.6
2017-Jul-15 06:59N 34°17' E 135°04'4 7.6
2017-Jul-15 06:30N 34°14' E 135°06'1 1.5
2017-Jul-15 06:00N 34°15' E 135°07'0 0.0
2017-Jul-15 05:30N 34°15' E 135°07'0 0.0
2017-Jul-15 05:00N 34°15' E 135°07'0 0.0
2017-Jul-15 04:30N 34°15' E 135°07'0 0.0
2017-Jul-15 04:00N 34°15' E 135°07'0 0.0
2017-Jul-15 03:30N 34°15' E 135°07'0 0.0
2017-Jul-15 03:00N 34°15' E 135°07'0 0.0
2017-Jul-15 02:30N 34°15' E 135°07'0 0.0
2017-Jul-15 02:00N 34°15' E 135°07'0 0.2
2017-Jul-15 01:30N 34°15' E 135°07'0 0.0
2017-Jul-15 00:59N 34°15' E 135°07'0 0.0
2017-Jul-15 00:30N 34°15' E 135°07'0 0.0
2017-Jul-15 00:00N 34°15' E 135°07'0 0.0
2017-Jul-14 23:30N 34°15' E 135°07'0 0.0
2017-Jul-14 23:00N 34°15' E 135°07'0 0.0
2017-Jul-14 22:30N 34°15' E 135°07'0 0.0
2017-Jul-14 22:00N 34°15' E 135°07'0 0.5
2017-Jul-14 21:30N 34°14' E 135°07'1 2.3
2017-Jul-14 21:01N 34°15' E 135°06'0 0.0
2017-Jul-14 20:30N 34°15' E 135°06'0 0.0
2017-Jul-14 20:00N 34°15' E 135°06'0 0.0
2017-Jul-14 19:30N 34°15' E 135°06'0 0.0
2017-Jul-14 19:00N 34°15' E 135°06'0 0.0
2017-Jul-14 18:30N 34°15' E 135°06'0 0.0
2017-Jul-14 18:00N 34°15' E 135°06'0 0.0
2017-Jul-14 17:30N 34°15' E 135°06'0 0.0
2017-Jul-14 17:00N 34°15' E 135°06'0 0.0
2017-Jul-14 16:30N 34°15' E 135°06'0 0.1
2017-Jul-14 16:00N 34°15' E 135°06'0 0.0
2017-Jul-14 15:30N 34°15' E 135°06'0 0.1
2017-Jul-14 15:00N 34°15' E 135°06'0 0.0
2017-Jul-14 14:30N 34°15' E 135°06'0 0.0
2017-Jul-14 14:00N 34°15' E 135°06'0 0.0
2017-Jul-14 13:30N 34°15' E 135°06'0 0.0
2017-Jul-14 13:00N 34°15' E 135°06'0 0.0
2017-Jul-14 12:30N 34°15' E 135°06'0 0.0
2017-Jul-14 12:00N 34°15' E 135°06'0 0.1
2017-Jul-14 11:30N 34°15' E 135°06'0 0.0
2017-Jul-14 11:00N 34°15' E 135°06'0 0.0
2017-Jul-14 10:30N 34°15' E 135°06'0 0.0
2017-Jul-14 10:00N 34°15' E 135°06'0 0.0
2017-Jul-14 09:30N 34°15' E 135°06'2 3.0
2017-Jul-14 09:00N 34°14' E 135°04'  

Dump ship's entire track history